createdAt,value
2018-03-18T00:05:14.000Z,1002.367
2018-03-18T00:15:14.000Z,1002.331
2018-03-18T00:25:14.000Z,1002.397
2018-03-18T00:35:14.000Z,1002.448
2018-03-18T00:45:14.000Z,1002.595
2018-03-18T00:55:14.000Z,1002.598
2018-03-18T01:05:14.000Z,1002.525
2018-03-18T01:15:14.000Z,1002.476
2018-03-18T01:25:15.000Z,1002.576
2018-03-18T01:35:14.000Z,1002.45
2018-03-18T01:45:14.000Z,1002.316
2018-03-18T01:55:14.000Z,1002.4
2018-03-18T02:05:14.000Z,1002.356
2018-03-18T02:15:14.000Z,1002.342
2018-03-18T02:25:14.000Z,1002.168
2018-03-18T02:35:14.000Z,1002.266
2018-03-18T02:45:14.000Z,1002.274
2018-03-18T02:55:14.000Z,1002.256
2018-03-18T03:05:14.000Z,1002.167
2018-03-18T03:15:14.000Z,1002.143
2018-03-18T03:25:14.000Z,1002.18
2018-03-18T03:35:14.000Z,1002.188
2018-03-18T03:45:14.000Z,1002.228
2018-03-18T03:55:14.000Z,1002.365
2018-03-18T04:05:14.000Z,1002.426
2018-03-18T04:15:14.000Z,1002.465
2018-03-18T04:25:14.000Z,1002.511
2018-03-18T04:35:14.000Z,1002.624
2018-03-18T04:45:14.000Z,1002.599
2018-03-18T04:55:14.000Z,1002.585
2018-03-18T05:05:14.000Z,1002.711
2018-03-18T05:15:14.000Z,1002.699
2018-03-18T05:25:14.000Z,1002.779
2018-03-18T05:35:14.000Z,1002.742
2018-03-18T05:45:14.000Z,1002.897
2018-03-18T05:55:14.000Z,1002.967
2018-03-18T06:05:14.000Z,1003.019
2018-03-18T06:15:14.000Z,1003.066
2018-03-18T06:25:14.000Z,1003.081
2018-03-18T06:35:14.000Z,1003.134
2018-03-18T06:45:15.000Z,1003.234
2018-03-18T06:55:14.000Z,1003.26
2018-03-18T07:05:14.000Z,1003.317
2018-03-18T07:15:14.000Z,1003.478
2018-03-18T07:25:15.000Z,1003.765
2018-03-18T07:35:15.000Z,1003.548
2018-03-18T07:45:15.000Z,1003.668
2018-03-18T07:55:15.000Z,1003.69
2018-03-18T08:05:15.000Z,1003.79
2018-03-18T08:15:15.000Z,1003.847
2018-03-18T08:25:15.000Z,1003.878
2018-03-18T08:35:15.000Z,1004.019
2018-03-18T08:45:15.000Z,1003.973
2018-03-18T08:55:15.000Z,1003.973
2018-03-18T09:05:15.000Z,1003.986
2018-03-18T09:15:15.000Z,1004.036
2018-03-18T09:25:15.000Z,1004.088
2018-03-18T09:35:15.000Z,1004.047
2018-03-18T09:45:15.000Z,1004.145
2018-03-18T09:55:15.000Z,1004.181
2018-03-18T10:05:15.000Z,1004.203
2018-03-18T10:15:15.000Z,1004.238
2018-03-18T10:25:15.000Z,1004.277
2018-03-18T10:35:15.000Z,1004.281
2018-03-18T10:45:15.000Z,1004.373
2018-03-18T10:55:15.000Z,1004.286
2018-03-18T11:05:15.000Z,1004.286
2018-03-18T11:15:15.000Z,1004.179
2018-03-18T11:25:15.000Z,1004.218
2018-03-18T11:35:15.000Z,1004.112
2018-03-18T11:45:15.000Z,1004.193
2018-03-18T11:55:15.000Z,1004.214
2018-03-18T12:05:16.000Z,1004.116
2018-03-18T12:15:15.000Z,1004.156
2018-03-18T12:25:15.000Z,1004.023
2018-03-18T12:35:15.000Z,1003.983
2018-03-18T12:45:15.000Z,1003.954
2018-03-18T12:55:15.000Z,1003.951
2018-03-18T13:05:15.000Z,1003.893
2018-03-18T13:15:15.000Z,1003.8
2018-03-18T13:25:15.000Z,1003.834
2018-03-18T13:35:15.000Z,1003.872
2018-03-18T13:45:15.000Z,1003.751
2018-03-18T13:55:15.000Z,1003.899
2018-03-18T14:05:15.000Z,1003.854
2018-03-18T14:15:15.000Z,1003.756
2018-03-18T14:25:15.000Z,1003.755
2018-03-18T14:35:15.000Z,1003.765
2018-03-18T14:45:15.000Z,1003.757
2018-03-18T14:55:15.000Z,1003.718
2018-03-18T15:05:15.000Z,1003.79
2018-03-18T15:15:15.000Z,1003.786
2018-03-18T15:25:15.000Z,1003.755
2018-03-18T15:35:16.000Z,1003.821
2018-03-18T15:45:16.000Z,1003.877
2018-03-18T15:55:16.000Z,1003.931
2018-03-18T16:05:16.000Z,1004.03
2018-03-18T16:15:16.000Z,1003.966
2018-03-18T16:25:16.000Z,1004.07
2018-03-18T16:35:16.000Z,1004.17
2018-03-18T16:45:16.000Z,1004.16
2018-03-18T16:55:17.000Z,1004.354
2018-03-18T17:05:16.000Z,1004.47
2018-03-18T17:15:16.000Z,1004.603
2018-03-18T17:25:16.000Z,1004.671
2018-03-18T17:35:16.000Z,1004.851
2018-03-18T17:45:16.000Z,1005.009
2018-03-18T17:55:16.000Z,1005.205
2018-03-18T18:05:17.000Z,1005.301
2018-03-18T18:15:16.000Z,1005.386
2018-03-18T18:25:16.000Z,1005.455
2018-03-18T18:35:16.000Z,1005.549
2018-03-18T18:55:16.000Z,1005.737
2018-03-18T19:05:16.000Z,1005.715
2018-03-18T19:15:16.000Z,1005.874
2018-03-18T19:25:16.000Z,1005.93
2018-03-18T19:35:16.000Z,1005.876
2018-03-18T19:45:16.000Z,1005.876
2018-03-18T19:55:16.000Z,1005.911
2018-03-18T20:05:16.000Z,1005.948
2018-03-18T20:15:16.000Z,1005.996
2018-03-18T20:25:16.000Z,1005.957
2018-03-18T20:35:16.000Z,1005.966
2018-03-18T20:45:16.000Z,1006.024
2018-03-18T20:55:16.000Z,1006.001
2018-03-18T21:05:16.000Z,1005.99
2018-03-18T21:15:16.000Z,1006.052
2018-03-18T21:25:16.000Z,1006.083
2018-03-18T21:35:16.000Z,1005.991
2018-03-18T21:45:16.000Z,1005.943
2018-03-18T21:55:16.000Z,1005.967
2018-03-18T22:05:16.000Z,1005.939
2018-03-18T22:15:16.000Z,1005.915
2018-03-18T22:25:16.000Z,1005.837
2018-03-18T22:35:16.000Z,1005.929
2018-03-18T22:45:16.000Z,1005.938
2018-03-18T22:55:16.000Z,1005.932
2018-03-18T23:05:16.000Z,1005.889
2018-03-18T23:15:16.000Z,1005.928
2018-03-18T23:25:16.000Z,1005.963
2018-03-18T23:35:16.000Z,1005.955
2018-03-18T23:45:17.000Z,1005.994
2018-03-18T23:55:18.000Z,1006.023
